createdAt,value
2022-08-19T07:58:29.295Z,98091.00
2022-08-19T08:00:58.906Z,98079.00
2022-08-19T08:03:41.747Z,98076.00
2022-08-19T08:06:23.797Z,98066.00
2022-08-19T08:09:06.901Z,98057.00
2022-08-19T08:11:36.420Z,98057.00
2022-08-19T08:14:07.665Z,98057.00
2022-08-19T08:16:57.732Z,98065.00
2022-08-19T08:19:30.503Z,98058.00
2022-08-19T08:22:03.789Z,98056.00
2022-08-19T08:24:35.651Z,98058.00
2022-08-19T08:27:11.205Z,98063.00
2022-08-19T08:29:42.311Z,98062.00
2022-08-19T08:32:14.236Z,98056.00
2022-08-19T08:34:45.302Z,98044.00
2022-08-19T08:37:19.675Z,98043.00
2022-08-19T08:39:49.078Z,98054.00
2022-08-19T08:42:34.845Z,98054.00
2022-08-19T08:45:17.818Z,98057.00
2022-08-19T08:47:55.309Z,98055.00
2022-08-19T08:50:45.596Z,98053.00
2022-08-19T08:53:18.578Z,98042.00
2022-08-19T08:55:59.300Z,98026.00
2022-08-19T08:58:54.395Z,98037.00
2022-08-19T09:01:24.467Z,98022.00
2022-08-19T09:04:02.730Z,98028.00
2022-08-19T09:07:18.480Z,98029.00
2022-08-19T09:10:47.911Z,98032.00
2022-08-19T09:13:56.742Z,98029.00
2022-08-19T09:16:29.271Z,98031.00
2022-08-19T09:19:09.234Z,98032.00
2022-08-19T09:21:40.625Z,98039.00
2022-08-19T09:24:10.081Z,98045.00
2022-08-19T09:26:52.373Z,98058.00
2022-08-19T09:29:23.089Z,98069.00
2022-08-19T09:31:52.592Z,98067.00
2022-08-19T09:34:22.355Z,98068.00
2022-08-19T09:36:57.394Z,98070.00
2022-08-19T09:39:26.719Z,98068.00
2022-08-19T09:42:06.922Z,98036.00
2022-08-19T09:44:47.245Z,98041.00
2022-08-19T09:47:20.501Z,98040.00
2022-08-19T09:49:52.679Z,98043.00
2022-08-19T09:52:22.119Z,98054.00
2022-08-19T09:54:55.726Z,98069.00
2022-08-19T09:57:26.457Z,98077.00
2022-08-19T09:59:55.819Z,98079.00
2022-08-19T10:02:25.265Z,98083.00
2022-08-19T10:05:10.811Z,98105.00
2022-08-19T10:07:40.540Z,98112.00
2022-08-19T10:10:11.614Z,98110.00
2022-08-19T10:12:41.899Z,98106.00
2022-08-19T10:15:12.058Z,98102.00
2022-08-19T10:17:41.400Z,98093.00
2022-08-19T10:20:17.960Z,98093.00
2022-08-19T10:22:47.473Z,98109.00
2022-08-19T10:25:21.375Z,98133.00
2022-08-19T10:27:51.287Z,98142.00
2022-08-19T10:30:21.567Z,98137.00
2022-08-19T10:32:54.312Z,98135.00
2022-08-19T10:35:24.971Z,98135.00
2022-08-19T10:38:01.970Z,98142.00
2022-08-19T10:40:32.140Z,98145.00
2022-08-19T10:43:01.656Z,98149.00
2022-08-19T10:45:31.139Z,98144.00
2022-08-19T10:48:00.495Z,98125.00
2022-08-19T10:50:42.063Z,98123.00
2022-08-19T10:53:11.910Z,98116.00
2022-08-19T10:55:53.689Z,98112.00
2022-08-19T10:58:27.098Z,98118.00
2022-08-19T11:01:00.577Z,98118.00
2022-08-19T11:03:31.965Z,98121.00
2022-08-19T11:06:07.965Z,98109.00
2022-08-19T11:08:39.716Z,98114.00
2022-08-19T11:11:11.143Z,98108.00
2022-08-19T11:13:43.548Z,98099.00
2022-08-19T11:16:19.271Z,98122.00
2022-08-19T11:18:54.164Z,98126.00
2022-08-19T11:21:36.799Z,98139.00
2022-08-19T11:24:15.728Z,98140.00
2022-08-19T11:26:47.102Z,98143.00
2022-08-19T11:29:16.835Z,98144.00
2022-08-19T11:31:49.193Z,98158.00
2022-08-19T11:34:23.009Z,98159.00
2022-08-19T11:36:53.617Z,98166.00
2022-08-19T11:39:25.245Z,98190.00
2022-08-19T11:41:54.753Z,98196.00
2022-08-19T11:44:24.132Z,98204.00
2022-08-19T11:46:54.604Z,98202.00
2022-08-19T11:49:23.997Z,98193.00
2022-08-19T11:51:53.823Z,98185.00
2022-08-19T11:54:23.382Z,98176.00
2022-08-19T11:56:53.171Z,98184.00
2022-08-19T11:59:28.927Z,98186.00
2022-08-19T12:01:59.820Z,98179.00
2022-08-19T12:04:29.243Z,98177.00
2022-08-19T12:06:58.553Z,98171.00
2022-08-19T12:09:28.012Z,98174.00
2022-08-19T12:12:00.463Z,98186.00
2022-08-19T12:14:32.180Z,98177.00
2022-08-19T12:17:02.123Z,98189.00
2022-08-19T12:19:31.500Z,98199.00
2022-08-19T12:22:05.389Z,98205.00
2022-08-19T12:24:36.263Z,98214.00
2022-08-19T12:27:05.762Z,98217.00
2022-08-19T12:29:42.189Z,98219.00
2022-08-19T12:32:12.454Z,98219.00
2022-08-19T12:34:42.562Z,98220.00
2022-08-19T12:37:13.007Z,98227.00
2022-08-19T12:39:45.512Z,98223.00
2022-08-19T12:42:17.035Z,98219.00
2022-08-19T12:44:47.006Z,98228.00
2022-08-19T12:47:17.216Z,98225.00
2022-08-19T12:49:53.461Z,98222.00
2022-08-19T12:52:29.185Z,98224.00
2022-08-19T12:55:02.293Z,98242.00
2022-08-19T12:57:41.121Z,98238.00
2022-08-19T13:00:18.960Z,98239.00
2022-08-19T13:02:57.086Z,98232.00
2022-08-19T13:05:37.400Z,98239.00
2022-08-19T13:08:06.812Z,98244.00
2022-08-19T13:10:39.799Z,98250.00
2022-08-19T13:13:21.068Z,98250.00
2022-08-19T13:16:04.128Z,98248.00
2022-08-19T13:18:34.197Z,98252.00
2022-08-19T13:21:19.221Z,98253.00
2022-08-19T13:23:53.807Z,98247.00
2022-08-19T13:26:31.369Z,98244.00
2022-08-19T13:29:15.962Z,98235.00
2022-08-19T13:31:57.915Z,98243.00
2022-08-19T13:34:43.451Z,98245.00
2022-08-19T13:37:24.446Z,98247.00
2022-08-19T13:40:02.680Z,98240.00
2022-08-19T13:42:34.429Z,98238.00
2022-08-19T13:45:09.925Z,98252.00
2022-08-19T13:47:48.662Z,98245.00
2022-08-19T13:50:27.476Z,98259.00
2022-08-19T13:53:00.885Z,98264.00
2022-08-19T13:55:30.552Z,98266.00
2022-08-19T13:58:04.795Z,98269.00
2022-08-19T14:00:41.181Z,98266.00
2022-08-19T14:03:11.228Z,98263.00
2022-08-19T14:05:47.990Z,98272.00
2022-08-19T14:08:17.619Z,98269.00
2022-08-19T14:10:47.337Z,98278.00
2022-08-19T14:13:22.722Z,98280.00
2022-08-19T14:15:53.204Z,98274.00
2022-08-19T14:18:22.537Z,98270.00
2022-08-19T14:20:56.550Z,98273.00
2022-08-19T14:23:25.845Z,98273.00
2022-08-19T14:26:00.754Z,98265.00
2022-08-19T14:28:32.942Z,98261.00
2022-08-19T14:31:02.339Z,98250.00
2022-08-19T14:33:31.763Z,98242.00
2022-08-19T14:36:02.473Z,98245.00
2022-08-19T14:38:33.392Z,98241.00
2022-08-19T14:41:24.545Z,98240.00
2022-08-19T14:43:56.221Z,98247.00
2022-08-19T14:46:29.873Z,98248.00
2022-08-19T14:49:00.307Z,98255.00
2022-08-19T14:51:29.944Z,98254.00
2022-08-19T14:53:59.810Z,98260.00
2022-08-19T14:56:32.831Z,98267.00
2022-08-19T14:59:03.295Z,98270.00
2022-08-19T15:01:32.830Z,98272.00
2022-08-19T15:04:02.262Z,98281.00
2022-08-19T15:06:32.415Z,98270.00
2022-08-19T15:09:04.378Z,98283.00
2022-08-19T15:11:34.864Z,98307.00
2022-08-19T15:14:04.600Z,98319.00
2022-08-19T15:16:34.534Z,98335.00
2022-08-19T15:19:04.013Z,98341.00
2022-08-19T15:21:33.555Z,98352.00
2022-08-19T15:24:03.635Z,98366.00
2022-08-19T15:26:34.303Z,98373.00
2022-08-19T15:29:05.492Z,98370.00
2022-08-19T15:31:38.172Z,98366.00
2022-08-19T15:34:09.437Z,98367.00
2022-08-19T15:36:39.550Z,98363.00
2022-08-19T15:39:11.148Z,98374.00
2022-08-19T15:41:42.100Z,98367.00
2022-08-19T15:44:16.325Z,98372.00
2022-08-19T15:46:48.221Z,98363.00
2022-08-19T15:49:21.424Z,98356.00
2022-08-19T15:51:55.100Z,98361.00
2022-08-19T15:54:24.671Z,98345.00
2022-08-19T15:57:07.246Z,98330.00
2022-08-19T15:59:51.399Z,98320.00
2022-08-19T16:02:38.103Z,98330.00
2022-08-19T16:05:32.912Z,98333.00
2022-08-19T16:08:02.263Z,98331.00
2022-08-19T16:10:32.037Z,98331.00
2022-08-19T16:13:01.949Z,98315.00
2022-08-19T16:15:32.465Z,98318.00
2022-08-19T16:18:03.970Z,98322.00
2022-08-19T16:20:35.572Z,98338.00
2022-08-19T16:23:06.223Z,98345.00
2022-08-19T16:25:35.674Z,98344.00
2022-08-19T16:28:07.467Z,98352.00
2022-08-19T16:30:40.315Z,98358.00
2022-08-19T16:33:12.055Z,98353.00
2022-08-19T16:35:56.106Z,98363.00
2022-08-19T16:38:38.656Z,98356.00
2022-08-19T16:41:08.448Z,98349.00
2022-08-19T16:43:40.024Z,98344.00
2022-08-19T16:46:10.709Z,98338.00
2022-08-19T16:48:44.041Z,98341.00
2022-08-19T16:51:15.125Z,98345.00
2022-08-19T16:53:46.338Z,98351.00
2022-08-19T16:56:17.354Z,98341.00
2022-08-19T16:58:46.647Z,98341.00
2022-08-19T17:01:15.963Z,98340.00
2022-08-19T17:03:48.390Z,98343.00
2022-08-19T17:06:22.183Z,98342.00
2022-08-19T17:08:55.364Z,98338.00
2022-08-19T17:11:27.696Z,98339.00
2022-08-19T17:13:59.957Z,98336.00
2022-08-19T17:16:36.902Z,98332.00
2022-08-19T17:19:09.434Z,98329.00
2022-08-19T17:21:41.565Z,98325.00
2022-08-19T17:24:12.436Z,98327.00
2022-08-19T17:26:42.487Z,98329.00
2022-08-19T17:29:11.789Z,98329.00
2022-08-19T17:31:41.222Z,98330.00
2022-08-19T17:34:11.163Z,98332.00
2022-08-19T17:36:40.526Z,98328.00
2022-08-19T17:39:09.782Z,98335.00
2022-08-19T17:41:39.069Z,98331.00
2022-08-19T17:44:08.302Z,98327.00
2022-08-19T17:46:37.629Z,98326.00
2022-08-19T17:49:07.720Z,98334.00
2022-08-19T17:51:48.142Z,98347.00
2022-08-19T17:54:21.257Z,98392.00
2022-08-19T17:56:51.251Z,98436.00
2022-08-19T18:01:56.594Z,98451.00
2022-08-19T18:04:27.439Z,98468.00
2022-08-19T18:06:56.933Z,98477.00
2022-08-19T18:09:41.592Z,98488.00
2022-08-19T18:12:17.460Z,98465.00
2022-08-19T18:14:47.457Z,98481.00
2022-08-19T18:17:20.203Z,98472.00
2022-08-19T18:19:50.171Z,98468.00
2022-08-19T18:22:38.064Z,98461.00
2022-08-19T18:25:26.749Z,98444.00
2022-08-19T18:28:01.625Z,98425.00
2022-08-19T18:30:35.463Z,98412.00
2022-08-19T18:33:14.925Z,98409.00
2022-08-19T18:35:49.705Z,98410.00
2022-08-19T18:38:35.315Z,98416.00
2022-08-19T18:41:25.136Z,98423.00
2022-08-19T18:44:06.944Z,98431.00
2022-08-19T18:46:48.971Z,98421.00
2022-08-19T18:49:33.444Z,98408.00
2022-08-19T18:52:04.334Z,98386.00
2022-08-19T18:54:34.210Z,98381.00
2022-08-19T18:57:06.662Z,98388.00
2022-08-19T18:59:37.206Z,98389.00
2022-08-19T19:02:06.761Z,98393.00
2022-08-19T19:04:40.071Z,98395.00
2022-08-19T19:07:10.756Z,98399.00
2022-08-19T19:09:42.028Z,98394.00
2022-08-19T19:12:13.675Z,98388.00
2022-08-19T19:14:49.381Z,98375.00
2022-08-19T19:17:19.717Z,98366.00
2022-08-19T19:19:49.050Z,98352.00
2022-08-19T19:22:23.399Z,98359.00
2022-08-19T19:24:55.189Z,98342.00
2022-08-19T19:27:24.851Z,98348.00
2022-08-19T19:29:55.488Z,98338.00
2022-08-19T19:32:38.984Z,98321.00
2022-08-19T19:35:11.700Z,98316.00
2022-08-19T19:37:41.007Z,98304.00
2022-08-19T19:40:11.426Z,98303.00
2022-08-19T19:42:40.710Z,98302.00
2022-08-19T19:45:10.903Z,98297.00
2022-08-19T19:47:40.189Z,98280.00
2022-08-19T19:50:14.995Z,98275.00
2022-08-19T19:52:47.410Z,98274.00
2022-08-19T19:55:21.728Z,98272.00
2022-08-19T19:57:51.605Z,98259.00
2022-08-19T20:00:22.637Z,98252.00
2022-08-19T20:02:54.508Z,98242.00
2022-08-19T20:05:25.643Z,98240.00
2022-08-19T20:08:09.511Z,98236.00
2022-08-19T20:10:39.884Z,98217.00
2022-08-19T20:13:10.508Z,98198.00
2022-08-19T20:15:42.732Z,98198.00
2022-08-19T20:18:17.634Z,98195.00
2022-08-19T20:20:51.130Z,98198.00
2022-08-19T20:23:22.811Z,98203.00
2022-08-19T20:25:53.975Z,98194.00
2022-08-19T20:28:23.800Z,98189.00
2022-08-19T20:30:55.627Z,98174.00
2022-08-19T20:33:24.992Z,98164.00
2022-08-19T20:35:54.588Z,98156.00
2022-08-19T20:38:24.436Z,98101.00
2022-08-19T20:40:53.978Z,98063.00
2022-08-19T20:43:23.274Z,98101.00
2022-08-19T20:45:52.561Z,98091.00
2022-08-19T20:48:22.029Z,98103.00
2022-08-19T20:50:51.831Z,98101.00
2022-08-19T20:53:24.441Z,98104.00
2022-08-19T20:55:54.430Z,98098.00
2022-08-19T20:58:29.709Z,98096.00
2022-08-19T21:01:03.368Z,98095.00
2022-08-19T21:03:43.345Z,98107.00
2022-08-19T21:06:16.201Z,98116.00
2022-08-19T21:08:46.187Z,98128.00
2022-08-19T21:11:20.719Z,98126.00
2022-08-19T21:13:50.287Z,98133.00
2022-08-19T21:16:19.602Z,98124.00
2022-08-19T21:18:49.392Z,98129.00
2022-08-19T21:21:19.138Z,98129.00
2022-08-19T21:23:49.703Z,98140.00
2022-08-19T21:26:19.404Z,98136.00
2022-08-19T21:28:48.742Z,98130.00
2022-08-19T21:31:19.016Z,98131.00
2022-08-19T21:33:48.317Z,98132.00
2022-08-19T21:36:18.322Z,98141.00
2022-08-19T21:38:47.728Z,98136.00
2022-08-19T21:41:17.129Z,98150.00
2022-08-19T21:43:46.387Z,98150.00
2022-08-19T21:46:16.035Z,98154.00
2022-08-19T21:48:45.965Z,98156.00
2022-08-19T21:51:15.298Z,98161.00
2022-08-19T21:53:46.311Z,98158.00
2022-08-19T21:56:17.904Z,98164.00
2022-08-19T21:58:47.258Z,98176.00
2022-08-19T22:01:17.216Z,98185.00
2022-08-19T22:03:46.646Z,98192.00
2022-08-19T22:06:16.128Z,98195.00
2022-08-19T22:08:45.926Z,98190.00
2022-08-19T22:11:15.152Z,98188.00
2022-08-19T22:13:44.497Z,98174.00
2022-08-19T22:16:15.044Z,98181.00
2022-08-19T22:18:45.393Z,98173.00
2022-08-19T22:21:15.866Z,98190.00
2022-08-19T22:24:05.475Z,98197.00
2022-08-19T22:26:34.846Z,98186.00
2022-08-19T22:29:04.414Z,98186.00
2022-08-19T22:31:33.866Z,98190.00
2022-08-19T22:34:04.663Z,98198.00
2022-08-19T22:36:33.945Z,98205.00
2022-08-19T22:39:03.465Z,98212.00
2022-08-19T22:41:34.829Z,98225.00
2022-08-19T22:44:04.936Z,98235.00
2022-08-19T22:46:35.336Z,98245.00
2022-08-19T22:49:05.447Z,98252.00
2022-08-19T22:51:47.012Z,98252.00
2022-08-19T22:54:16.998Z,98252.00
2022-08-19T22:56:46.918Z,98261.00
2022-08-19T22:59:16.332Z,98256.00
2022-08-19T23:01:45.750Z,98248.00
2022-08-19T23:04:14.983Z,98237.00
2022-08-19T23:06:44.370Z,98236.00
2022-08-19T23:09:16.774Z,98238.00
2022-08-19T23:11:47.481Z,98240.00
2022-08-19T23:14:19.981Z,98246.00
2022-08-19T23:16:51.343Z,98249.00
2022-08-19T23:19:22.352Z,98250.00
2022-08-19T23:21:53.649Z,98251.00
2022-08-19T23:24:23.312Z,98262.00
2022-08-19T23:27:05.228Z,98272.00
2022-08-19T23:29:47.331Z,98269.00
2022-08-19T23:32:20.088Z,98285.00
2022-08-19T23:34:50.257Z,98281.00
2022-08-19T23:37:19.828Z,98278.00
2022-08-19T23:39:51.119Z,98287.00
2022-08-19T23:42:21.640Z,98288.00
2022-08-19T23:44:52.954Z,98269.00
2022-08-19T23:47:23.306Z,98267.00
2022-08-19T23:49:52.772Z,98267.00
2022-08-19T23:52:22.303Z,98267.00
2022-08-19T23:55:23.457Z,98272.00
2022-08-19T23:57:53.566Z,98285.00
